Gladwin, MI (48624)

11:45 PM EDT on May 24, 2015 (GMT -0400)
Pointer Hill | | Change Station
CLOSE
Current Station
Personal Weather Station
Location: West Branch, MI
Elevation: 1407 ft
Nearby Weather Stations

Elev 1407 ft 44.28 °N, 84.36 °W | Updated 19 seconds ago

Rain
Rain
58.8 °F
Feels Like 58.8 °F
N
0.4
Wind Variable Wind from ENE
Gusts 1.6 mph

Today
High -- | Low -- °F
--% Chance of Precip.
Yesterday
High -- | Low -- °F
Precip. -- in
6:03 AM 9:06 PM
Waxing Crescent, 45% visible
Pressure 30.10 in
Visibility 4.0 miles
Clouds Mostly Cloudy 4400 ft
Overcast 5500 ft
Dew Point 55 °F
Humidity 88%
Rainfall 0.21 in
Snow Depth Not available.
UV 0 out of 12
Pollen 9.50 out of 12
Air Quality Not available.
Flu Activity Sporadic
METAR KHTL 250253Z AUTO 11004KT 4SM RA BR BKN044 OVC055 14/13 A3010

More Conditions Fewer Conditions

Pressure 30.10 in
Visibility 4.0 miles
Clouds Mostly Cloudy 4400 ft
Overcast 5500 ft
Dew Point 55 °F
Humidity 88%
Rainfall 0.21 in
Snow Depth Not available.
UV 0 out of 12
Pollen 9.50 out of 12
Air Quality Not available.
Flu Activity Sporadic
METAR KHTL 250253Z AUTO 11004KT 4SM RA BR BKN044 OVC055 14/13 A3010

More Conditions Fewer Conditions

Nowcast | as of 10:00 PM EDT on May 24, 2015

At 11 PM...rain. Temperature 61. Southeast winds 8 mph. At 1 am...rain. Temperature 60. East winds 9 mph. At 3 am...rain and chance of thunderstorms. Temperature 63. Southeast winds 8 mph. At 5 am...rain and chance of thunderstorms. Temperature 67. Southeast winds 6 mph.

×

10-Day Weather Forecast

Almanac

Astronomy

May. 24, 2015 Rise Set
Actual Time
Civil Twilight
Nautical Twilight
Astronomical Twilight
Moon
Length of Visible Light
Length of Day
Tomorrow will be .
, % of the Moon is Illuminated

Today's Extremes

State Highs State Lows

Community

WunderPhotos

Upload Photos

1,823,945 photos uploaded!

WunderBlogs® & News

Nearby

Air Quality

  Air Quality AQ Index Pollutant
Not available.

Snow Depth

Station Depth Elevation

Earthquake Activity

City Distance Mag. Time & Date
Minimum magnitude displayed is 2.5.

Coastal Water Temperatures

Place Temperature

Stations

Nearby Weather Stations

Station Location Temp. Windchill Dew Point Humidity Wind Precip. Elev Updated Type